createdAt,value
2018-11-10T00:00:38.497Z,6.40
2018-11-10T00:03:06.572Z,6.40
2018-11-10T00:05:34.210Z,6.40
2018-11-10T00:08:01.893Z,6.40
2018-11-10T00:10:35.244Z,6.50
2018-11-10T00:13:02.885Z,6.50
2018-11-10T00:15:30.431Z,6.50
2018-11-10T00:17:58.047Z,6.60
2018-11-10T00:20:25.614Z,6.60
2018-11-10T00:22:53.273Z,6.70
2018-11-10T00:25:20.879Z,6.70
2018-11-10T00:27:48.429Z,6.70
2018-11-10T00:30:17.186Z,6.70
2018-11-10T00:32:45.183Z,6.70
2018-11-10T00:35:12.782Z,6.70
2018-11-10T00:37:40.438Z,6.70
2018-11-10T00:40:09.600Z,6.70
2018-11-10T00:42:37.249Z,6.70
2018-11-10T00:45:05.598Z,6.70
2018-11-10T00:47:33.211Z,6.70
2018-11-10T00:50:00.901Z,6.70
2018-11-10T00:52:28.505Z,6.70
2018-11-10T00:54:56.133Z,6.70
2018-11-10T00:57:23.799Z,6.60
2018-11-10T00:59:51.437Z,6.60
2018-11-10T01:02:18.999Z,6.60
2018-11-10T01:04:46.564Z,6.60
2018-11-10T01:07:14.259Z,6.60
2018-11-10T01:09:42.135Z,6.60
2018-11-10T01:12:09.712Z,6.60
2018-11-10T01:14:37.329Z,6.60
2018-11-10T01:17:05.143Z,6.60
2018-11-10T01:19:32.787Z,6.50
2018-11-10T01:22:00.358Z,6.50
2018-11-10T01:24:27.926Z,6.50
2018-11-10T01:26:55.544Z,6.50
2018-11-10T01:29:23.169Z,6.50
2018-11-10T01:31:50.819Z,6.40
2018-11-10T01:34:18.485Z,6.50
2018-11-10T01:36:45.973Z,6.50
2018-11-10T01:39:13.670Z,6.60
2018-11-10T01:41:41.331Z,6.60
2018-11-10T01:44:09.052Z,6.60
2018-11-10T01:46:36.701Z,6.60
2018-11-10T01:49:04.700Z,6.50
2018-11-10T01:51:32.279Z,6.50
2018-11-10T01:54:00.364Z,6.50
2018-11-10T01:56:28.087Z,6.50
2018-11-10T01:58:55.968Z,6.50
2018-11-10T02:01:23.563Z,6.50
2018-11-10T02:03:51.149Z,6.50
2018-11-10T02:06:18.786Z,6.50
2018-11-10T02:08:46.381Z,6.50
2018-11-10T02:11:14.118Z,6.50
2018-11-10T02:13:41.758Z,6.60
2018-11-10T02:16:09.362Z,6.60
2018-11-10T02:18:36.968Z,6.50
2018-11-10T02:21:04.892Z,6.40
2018-11-10T02:23:32.550Z,6.40
2018-11-10T02:26:00.200Z,6.40
2018-11-10T02:28:27.800Z,6.40
2018-11-10T02:30:55.427Z,6.30
2018-11-10T02:33:23.007Z,6.30
2018-11-10T02:35:50.575Z,6.30
2018-11-10T02:38:18.172Z,6.20
2018-11-10T02:40:45.784Z,6.20
2018-11-10T02:43:13.396Z,6.20
2018-11-10T02:45:40.901Z,6.20
2018-11-10T02:48:08.521Z,6.10
2018-11-10T02:50:36.090Z,6.20
2018-11-10T02:53:03.661Z,6.10
2018-11-10T02:55:31.214Z,6.10
2018-11-10T02:57:58.778Z,6.10
2018-11-10T03:00:26.352Z,6.00
2018-11-10T03:02:53.953Z,6.00
2018-11-10T03:05:21.547Z,6.00
2018-11-10T03:07:49.109Z,6.00
2018-11-10T03:10:16.672Z,6.10
2018-11-10T03:12:44.316Z,6.10
2018-11-10T03:15:12.434Z,6.10
2018-11-10T03:17:40.006Z,6.20
2018-11-10T03:20:09.560Z,6.20
2018-11-10T03:22:37.439Z,6.20
2018-11-10T03:25:05.121Z,6.20
2018-11-10T03:27:32.688Z,6.20
2018-11-10T03:30:00.258Z,6.30
2018-11-10T03:32:27.855Z,6.30
2018-11-10T03:34:55.435Z,6.30
2018-11-10T03:37:23.072Z,6.30
2018-11-10T03:39:50.647Z,6.30
2018-11-10T03:42:18.283Z,6.30
2018-11-10T03:44:45.859Z,6.40
2018-11-10T03:47:13.444Z,6.40
2018-11-10T03:49:41.091Z,6.40
2018-11-10T03:52:18.667Z,6.50
2018-11-10T03:54:46.256Z,6.50
2018-11-10T03:57:13.855Z,6.60
2018-11-10T03:59:41.457Z,6.60
2018-11-10T04:02:09.119Z,6.70
2018-11-10T04:04:36.767Z,6.70
2018-11-10T04:07:04.440Z,6.70
2018-11-10T04:09:32.049Z,6.70
2018-11-10T04:11:59.644Z,6.80
2018-11-10T04:14:27.244Z,6.80
2018-11-10T04:16:54.904Z,6.90
2018-11-10T04:19:22.480Z,6.90
2018-11-10T04:21:50.045Z,6.90
2018-11-10T04:24:17.693Z,6.90
2018-11-10T04:26:45.277Z,7.00
2018-11-10T04:29:12.956Z,6.90
2018-11-10T04:31:40.537Z,7.00
2018-11-10T04:34:08.163Z,7.00
2018-11-10T04:36:35.871Z,7.00
2018-11-10T04:39:04.692Z,7.00
2018-11-10T04:41:32.337Z,7.00
2018-11-10T04:43:59.934Z,7.00
2018-11-10T04:46:27.569Z,7.10
2018-11-10T04:48:55.215Z,7.10
2018-11-10T04:51:22.850Z,7.10
2018-11-10T04:53:50.463Z,7.20
2018-11-10T04:56:18.088Z,7.20
2018-11-10T04:58:45.613Z,7.20
2018-11-10T05:01:13.305Z,7.20
2018-11-10T05:03:41.134Z,7.30
2018-11-10T05:06:08.838Z,7.30
2018-11-10T05:08:36.397Z,7.30
2018-11-10T05:11:04.311Z,7.30
2018-11-10T05:13:31.953Z,7.30
2018-11-10T05:15:59.537Z,7.30
2018-11-10T05:18:27.159Z,7.30
2018-11-10T05:20:54.732Z,7.30
2018-11-10T05:23:22.338Z,7.30
2018-11-10T05:25:49.902Z,7.30
2018-11-10T05:28:17.523Z,7.30
2018-11-10T05:30:45.106Z,7.30
2018-11-10T05:33:12.738Z,7.30
2018-11-10T05:35:40.296Z,7.30
2018-11-10T05:38:07.849Z,7.30
2018-11-10T05:40:35.452Z,7.30
2018-11-10T05:43:03.032Z,7.30
2018-11-10T05:45:30.639Z,7.20
2018-11-10T05:47:58.208Z,7.20
2018-11-10T05:50:25.839Z,7.20
2018-11-10T05:52:53.405Z,7.20
2018-11-10T05:55:20.965Z,7.20
2018-11-10T05:57:48.548Z,7.20
2018-11-10T06:00:17.044Z,7.20
2018-11-10T06:02:44.634Z,7.20
2018-11-10T06:05:12.537Z,7.20
2018-11-10T06:07:40.159Z,7.20
2018-11-10T06:10:09.274Z,7.30
2018-11-10T06:12:36.858Z,7.20
2018-11-10T06:15:05.334Z,7.30
2018-11-10T06:17:32.934Z,7.30
2018-11-10T06:20:00.503Z,7.30
2018-11-10T06:22:28.280Z,7.30
2018-11-10T06:24:55.838Z,7.30
2018-11-10T06:27:23.438Z,7.30
2018-11-10T06:29:51.029Z,7.40
2018-11-10T06:32:18.568Z,7.40
2018-11-10T06:37:20.432Z,7.40
2018-11-10T06:39:47.960Z,7.50
2018-11-10T06:42:16.197Z,7.50
2018-11-10T06:44:43.753Z,7.50
2018-11-10T06:47:11.406Z,7.60
2018-11-10T06:49:39.008Z,7.60
2018-11-10T06:52:06.590Z,7.60
2018-11-10T06:54:34.269Z,7.70
2018-11-10T06:57:01.848Z,7.70
2018-11-10T06:59:29.488Z,7.70
2018-11-10T07:01:57.054Z,7.80
2018-11-10T07:04:24.671Z,7.80
2018-11-10T07:06:52.294Z,7.80
2018-11-10T07:09:19.924Z,7.80
2018-11-10T07:11:47.453Z,7.90
2018-11-10T07:14:15.048Z,7.90
2018-11-10T07:16:42.679Z,7.90
2018-11-10T07:19:10.198Z,8.00
2018-11-10T07:21:37.819Z,8.00
2018-11-10T07:24:05.771Z,8.00
2018-11-10T07:26:33.598Z,8.00
2018-11-10T07:29:01.183Z,8.00
2018-11-10T07:31:28.778Z,8.10
2018-11-10T07:33:56.387Z,8.10
2018-11-10T07:36:23.999Z,8.20
2018-11-10T07:38:51.544Z,8.20
2018-11-10T07:41:19.165Z,8.20
2018-11-10T07:43:46.747Z,8.20
2018-11-10T07:46:14.491Z,8.30
2018-11-10T07:48:42.121Z,8.30
2018-11-10T07:51:09.760Z,8.30
2018-11-10T07:53:37.274Z,8.40
2018-11-10T07:56:05.761Z,8.40
2018-11-10T07:58:33.284Z,8.40
2018-11-10T08:01:00.897Z,8.50
2018-11-10T08:03:28.443Z,8.50
2018-11-10T08:05:55.994Z,8.50
2018-11-10T08:08:23.633Z,8.50
2018-11-10T08:10:51.278Z,8.50
2018-11-10T08:13:18.841Z,8.60
2018-11-10T08:15:46.401Z,8.60
2018-11-10T08:18:14.023Z,8.60
2018-11-10T08:20:41.652Z,8.60
2018-11-10T08:23:09.357Z,8.70
2018-11-10T08:25:37.030Z,8.70
2018-11-10T08:28:04.741Z,8.70
2018-11-10T08:30:32.356Z,8.80
2018-11-10T08:32:59.953Z,8.80
2018-11-10T08:35:27.544Z,8.80
2018-11-10T08:37:55.136Z,8.80
2018-11-10T08:40:22.770Z,8.90
2018-11-10T08:42:50.400Z,8.90
2018-11-10T08:45:18.075Z,8.90
2018-11-10T08:47:45.681Z,9.00
2018-11-10T08:50:14.553Z,9.00
2018-11-10T08:52:42.660Z,9.00
2018-11-10T08:55:11.254Z,9.00
2018-11-10T08:57:39.238Z,9.10
2018-11-10T09:00:08.094Z,9.10
2018-11-10T09:02:35.947Z,9.10
2018-11-10T09:05:03.749Z,9.20
2018-11-10T09:07:31.488Z,9.20
2018-11-10T09:09:59.234Z,9.20
2018-11-10T09:12:26.735Z,9.20
2018-11-10T09:14:54.385Z,9.30
2018-11-10T09:17:21.958Z,9.30
2018-11-10T09:19:49.696Z,9.40
2018-11-10T09:22:17.279Z,9.40
2018-11-10T09:24:44.948Z,9.50
2018-11-10T09:27:12.522Z,9.50
2018-11-10T09:29:40.168Z,9.60
2018-11-10T09:32:07.783Z,9.60
2018-11-10T09:34:35.403Z,9.70
2018-11-10T09:37:03.024Z,9.80
2018-11-10T09:39:30.522Z,9.80
2018-11-10T09:41:58.313Z,9.90
2018-11-10T09:44:25.941Z,10.00
2018-11-10T09:46:53.607Z,10.00
2018-11-10T09:49:21.236Z,10.10
2018-11-10T09:51:48.816Z,10.10
2018-11-10T09:54:16.500Z,10.20
2018-11-10T09:56:44.127Z,10.30
2018-11-10T09:59:11.715Z,10.30
2018-11-10T10:01:39.504Z,10.40
2018-11-10T10:04:07.338Z,10.40
2018-11-10T10:06:34.904Z,10.50
2018-11-10T10:09:03.012Z,10.50
2018-11-10T10:11:30.696Z,10.60
2018-11-10T10:13:58.299Z,10.60
2018-11-10T10:16:26.038Z,10.60
2018-11-10T10:18:53.461Z,10.70
2018-11-10T10:21:21.049Z,10.70
2018-11-10T10:23:48.717Z,10.70
2018-11-10T10:26:16.316Z,10.80
2018-11-10T10:28:43.991Z,10.80
2018-11-10T10:31:11.619Z,10.80
2018-11-10T10:33:39.628Z,10.90
2018-11-10T10:36:07.222Z,10.90
2018-11-10T10:38:34.871Z,10.90
2018-11-10T10:41:02.677Z,11.00
2018-11-10T10:43:30.246Z,11.00
2018-11-10T10:45:57.847Z,11.10
2018-11-10T10:48:25.474Z,11.10
2018-11-10T10:50:53.061Z,11.20
2018-11-10T10:53:20.691Z,11.20
2018-11-10T10:55:55.017Z,11.20
2018-11-10T10:58:22.537Z,11.30
2018-11-10T11:00:55.769Z,11.40
2018-11-10T11:03:29.009Z,11.40
2018-11-10T11:06:00.782Z,11.50
2018-11-10T11:08:28.698Z,11.50
2018-11-10T11:10:56.245Z,11.60
2018-11-10T11:13:23.878Z,11.60
2018-11-10T11:15:51.605Z,11.70
2018-11-10T11:18:19.160Z,11.70
2018-11-10T11:20:46.787Z,11.70
2018-11-10T11:23:14.376Z,11.80
2018-11-10T11:25:41.912Z,11.80
2018-11-10T11:28:09.480Z,11.80
2018-11-10T11:30:37.027Z,11.80
2018-11-10T11:33:05.096Z,11.80
2018-11-10T11:35:32.665Z,11.80
2018-11-10T11:38:00.381Z,11.80
2018-11-10T11:40:27.941Z,11.90
2018-11-10T11:42:55.536Z,11.90
2018-11-10T11:45:23.169Z,11.90
2018-11-10T11:47:50.697Z,12.00
2018-11-10T11:50:18.305Z,12.00
2018-11-10T11:52:45.903Z,12.00
2018-11-10T11:55:13.952Z,12.10
2018-11-10T11:57:41.703Z,12.10
2018-11-10T12:00:11.353Z,12.10
2018-11-10T12:02:39.273Z,12.20
2018-11-10T12:05:07.883Z,12.20
2018-11-10T12:07:35.459Z,12.20
2018-11-10T12:10:03.176Z,12.30
2018-11-10T12:12:30.754Z,12.30
2018-11-10T12:14:58.380Z,12.30
2018-11-10T12:17:25.989Z,12.40
2018-11-10T12:19:53.552Z,12.40
2018-11-10T12:22:21.207Z,12.50
2018-11-10T12:24:48.843Z,12.50
2018-11-10T12:27:16.397Z,12.50
2018-11-10T12:29:43.949Z,12.60
2018-11-10T12:32:11.537Z,12.70
2018-11-10T12:34:39.170Z,12.70
2018-11-10T12:37:06.781Z,12.70
2018-11-10T12:39:34.354Z,12.80
2018-11-10T12:42:02.068Z,12.80
2018-11-10T12:44:29.625Z,12.80
2018-11-10T12:46:57.209Z,12.90
2018-11-10T12:49:24.804Z,12.90
2018-11-10T12:51:52.417Z,13.00
2018-11-10T12:54:20.001Z,13.00
2018-11-10T12:56:47.619Z,13.10
2018-11-10T12:59:15.264Z,13.10
2018-11-10T13:01:42.833Z,13.10
2018-11-10T13:04:10.456Z,13.10
2018-11-10T13:06:38.097Z,13.20
2018-11-10T13:09:07.354Z,13.20
2018-11-10T13:11:35.019Z,13.20
2018-11-10T13:14:02.657Z,13.30
2018-11-10T13:16:30.301Z,13.30
2018-11-10T13:18:57.899Z,13.30
2018-11-10T13:21:25.626Z,13.40
2018-11-10T13:23:53.233Z,13.30
2018-11-10T13:26:20.761Z,13.40
2018-11-10T13:28:49.122Z,13.40
2018-11-10T13:31:16.824Z,13.40
2018-11-10T13:33:44.253Z,13.40
2018-11-10T13:36:11.829Z,13.40
2018-11-10T13:38:39.731Z,13.40
2018-11-10T13:41:07.276Z,13.50
2018-11-10T13:43:34.906Z,13.40
2018-11-10T13:46:02.534Z,13.50
2018-11-10T13:48:30.163Z,13.50
2018-11-10T13:50:57.836Z,13.50
2018-11-10T13:53:25.294Z,13.50
2018-11-10T13:55:52.933Z,13.50
2018-11-10T13:58:20.501Z,13.50
2018-11-10T14:00:48.061Z,13.50
2018-11-10T14:03:15.700Z,13.50
2018-11-10T14:05:43.299Z,13.40
2018-11-10T14:08:10.858Z,13.40
2018-11-10T14:10:38.429Z,13.40
2018-11-10T14:13:09.040Z,13.40
2018-11-10T14:15:36.608Z,13.40
2018-11-10T14:18:04.307Z,13.40
2018-11-10T14:20:31.927Z,13.40
2018-11-10T14:22:59.485Z,13.40
2018-11-10T14:25:27.128Z,13.40
2018-11-10T14:27:54.740Z,13.30
2018-11-10T14:30:22.360Z,13.30
2018-11-10T14:32:49.960Z,13.30
2018-11-10T14:35:18.201Z,13.30
2018-11-10T14:37:45.816Z,13.30
2018-11-10T14:40:14.782Z,13.30
2018-11-10T14:42:43.836Z,13.30
2018-11-10T14:45:12.669Z,13.30
2018-11-10T14:47:40.724Z,13.30
2018-11-10T14:50:09.451Z,13.20
2018-11-10T14:52:37.165Z,13.20
2018-11-10T14:55:05.795Z,13.20
2018-11-10T14:57:33.464Z,13.20
2018-11-10T15:00:01.127Z,13.20
2018-11-10T15:02:28.673Z,13.20
2018-11-10T15:04:56.320Z,13.10
2018-11-10T15:07:23.964Z,13.10
2018-11-10T15:09:51.574Z,13.10
2018-11-10T15:12:19.267Z,13.00
2018-11-10T15:14:46.767Z,13.00
2018-11-10T15:17:14.289Z,13.00
2018-11-10T15:19:41.880Z,13.00
2018-11-10T15:22:09.445Z,12.90
2018-11-10T15:24:37.059Z,12.90
2018-11-10T15:27:04.709Z,12.90
2018-11-10T15:29:32.265Z,12.80
2018-11-10T15:31:59.869Z,12.80
2018-11-10T15:34:27.421Z,12.80
2018-11-10T15:36:55.097Z,12.80
2018-11-10T15:39:22.745Z,12.70
2018-11-10T15:41:50.330Z,12.70
2018-11-10T15:44:18.029Z,12.70
2018-11-10T15:46:45.692Z,12.70
2018-11-10T15:49:13.525Z,12.80
2018-11-10T15:51:41.258Z,12.80
2018-11-10T15:54:08.879Z,12.70
2018-11-10T15:56:36.504Z,12.70
2018-11-10T15:59:04.172Z,12.60
2018-11-10T16:01:32.067Z,12.60
2018-11-10T16:03:59.693Z,12.60
2018-11-10T16:06:27.393Z,12.50
2018-11-10T16:08:55.072Z,12.50
2018-11-10T16:11:22.682Z,12.40
2018-11-10T16:13:50.199Z,12.40
2018-11-10T16:16:18.261Z,12.40
2018-11-10T16:18:45.835Z,12.30
2018-11-10T16:21:13.407Z,12.30
2018-11-10T16:23:41.014Z,12.30
2018-11-10T16:26:08.639Z,12.20
2018-11-10T16:28:36.206Z,12.20
2018-11-10T16:31:03.928Z,12.20
2018-11-10T16:33:31.561Z,12.10
2018-11-10T16:35:59.205Z,12.10
2018-11-10T16:38:27.122Z,12.10
2018-11-10T16:43:12.900Z,13.80
2018-11-10T16:45:40.581Z,13.20
2018-11-10T16:48:08.132Z,12.80
2018-11-10T16:50:35.686Z,12.70
2018-11-10T16:53:03.506Z,12.60
2018-11-10T16:55:31.126Z,12.50
2018-11-10T16:57:58.764Z,12.40
2018-11-10T17:00:26.372Z,12.40
2018-11-10T17:02:54.063Z,12.30
2018-11-10T17:05:21.710Z,12.30
2018-11-10T17:07:49.387Z,12.20
2018-11-10T17:10:17.802Z,12.20
2018-11-10T17:12:45.463Z,12.20
2018-11-10T17:15:13.110Z,12.10
2018-11-10T17:17:40.764Z,12.10
2018-11-10T17:20:10.582Z,12.10
2018-11-10T17:22:38.387Z,12.00
2018-11-10T17:25:06.366Z,12.00
2018-11-10T17:27:33.997Z,12.00
2018-11-10T17:30:01.670Z,12.00
2018-11-10T17:32:29.208Z,11.90
2018-11-10T17:34:56.863Z,11.90
2018-11-10T17:37:24.445Z,11.90
2018-11-10T17:39:52.183Z,11.80
2018-11-10T17:42:19.782Z,11.80
2018-11-10T17:44:47.421Z,11.80
2018-11-10T17:47:15.069Z,11.80
2018-11-10T17:49:42.672Z,11.70
2018-11-10T17:52:10.374Z,11.70
2018-11-10T17:54:37.937Z,11.70
2018-11-10T17:57:05.539Z,11.70
2018-11-10T17:59:33.178Z,11.70
2018-11-10T18:02:00.846Z,11.60
2018-11-10T18:04:28.435Z,11.60
2018-11-10T18:06:56.139Z,11.60
2018-11-10T18:09:23.732Z,11.60
2018-11-10T18:11:51.325Z,11.60
2018-11-10T18:14:18.891Z,11.50
2018-11-10T18:16:46.509Z,11.50
2018-11-10T18:19:14.241Z,11.50
2018-11-10T18:21:41.877Z,11.50
2018-11-10T18:24:09.503Z,11.40
2018-11-10T18:26:37.015Z,11.40
2018-11-10T18:29:05.849Z,11.40
2018-11-10T18:31:33.537Z,11.40
2018-11-10T18:34:01.064Z,11.40
2018-11-10T18:36:28.703Z,11.30
2018-11-10T18:38:56.249Z,11.30
2018-11-10T18:41:23.839Z,11.30
2018-11-10T18:43:51.371Z,11.30
2018-11-10T18:46:18.972Z,11.30
2018-11-10T18:48:46.615Z,11.20
2018-11-10T18:51:14.244Z,11.20
2018-11-10T18:53:41.828Z,11.20
2018-11-10T18:56:09.421Z,11.30
2018-11-10T18:58:36.976Z,11.30
2018-11-10T19:01:04.561Z,11.30
2018-11-10T19:03:32.132Z,11.30
2018-11-10T19:05:59.690Z,11.30
2018-11-10T19:08:27.261Z,11.30
2018-11-10T19:10:54.874Z,11.30
2018-11-10T19:13:22.454Z,11.30
2018-11-10T19:15:50.107Z,11.30
2018-11-10T19:18:17.636Z,11.30
2018-11-10T19:20:45.164Z,11.30
2018-11-10T19:23:12.793Z,11.30
2018-11-10T19:25:40.416Z,11.30
2018-11-10T19:28:07.985Z,11.30
2018-11-10T19:30:35.644Z,11.30
2018-11-10T19:33:03.287Z,11.30
2018-11-10T19:35:30.906Z,11.30
2018-11-10T19:37:58.532Z,11.30
2018-11-10T19:40:26.161Z,11.30
2018-11-10T19:42:53.808Z,11.20
2018-11-10T19:45:21.459Z,11.20
2018-11-10T19:47:49.131Z,11.20
2018-11-10T19:50:16.859Z,11.20
2018-11-10T19:52:44.580Z,11.20
2018-11-10T19:55:14.159Z,11.20
2018-11-10T19:57:41.887Z,11.20
2018-11-10T20:00:12.849Z,11.20
2018-11-10T20:02:40.441Z,11.20
2018-11-10T20:05:08.237Z,11.10
2018-11-10T20:07:35.911Z,11.10
2018-11-10T20:10:04.096Z,11.10
2018-11-10T20:12:31.957Z,11.10
2018-11-10T20:14:59.641Z,11.10
2018-11-10T20:17:27.456Z,11.20
2018-11-10T20:19:55.110Z,11.20
2018-11-10T20:22:22.854Z,11.20
2018-11-10T20:24:50.836Z,11.20
2018-11-10T20:27:18.544Z,11.10
2018-11-10T20:29:46.214Z,11.20
2018-11-10T20:32:13.847Z,11.20
2018-11-10T20:34:41.472Z,11.10
2018-11-10T20:37:09.147Z,11.10
2018-11-10T20:39:36.923Z,11.10
2018-11-10T20:42:04.648Z,11.10
2018-11-10T20:44:32.216Z,11.10
2018-11-10T20:46:59.732Z,11.10
2018-11-10T20:49:27.424Z,11.10
2018-11-10T20:51:55.106Z,11.10
2018-11-10T20:54:22.814Z,11.10
2018-11-10T20:56:50.378Z,11.10
2018-11-10T20:59:18.035Z,11.10
2018-11-10T21:01:45.565Z,11.10
2018-11-10T21:04:13.355Z,11.10
2018-11-10T21:06:40.864Z,11.10
2018-11-10T21:09:10.046Z,11.10
2018-11-10T21:11:37.701Z,11.10
2018-11-10T21:14:06.070Z,11.10
2018-11-10T21:16:33.697Z,11.10
2018-11-10T21:19:01.382Z,11.10
2018-11-10T21:21:29.050Z,11.10
2018-11-10T21:23:56.685Z,11.00
2018-11-10T21:26:24.304Z,11.00
2018-11-10T21:28:51.893Z,11.00
2018-11-10T21:31:19.549Z,11.00
2018-11-10T21:33:47.220Z,11.00
2018-11-10T21:36:14.839Z,11.00
2018-11-10T21:38:42.416Z,11.00
2018-11-10T21:41:10.102Z,10.90
2018-11-10T21:43:37.755Z,10.90
2018-11-10T21:46:05.492Z,10.90
2018-11-10T21:48:33.090Z,10.90
2018-11-10T21:51:00.639Z,10.90
2018-11-10T21:53:28.190Z,10.90
2018-11-10T21:55:55.767Z,10.80
2018-11-10T21:58:23.401Z,10.80
2018-11-10T22:00:50.965Z,10.80
2018-11-10T22:03:18.516Z,10.80
2018-11-10T22:05:46.085Z,10.80
2018-11-10T22:08:13.704Z,10.80
2018-11-10T22:10:41.325Z,10.80
2018-11-10T22:13:08.938Z,10.80
2018-11-10T22:15:36.512Z,10.80
2018-11-10T22:18:04.199Z,10.70
2018-11-10T22:20:31.744Z,10.70
2018-11-10T22:22:59.426Z,10.70
2018-11-10T22:25:27.039Z,10.70
2018-11-10T22:27:54.672Z,10.70
2018-11-10T22:30:22.778Z,10.70
2018-11-10T22:32:50.537Z,10.70
2018-11-10T22:35:18.159Z,10.60
2018-11-10T22:37:46.004Z,10.60
2018-11-10T22:40:14.977Z,10.60
2018-11-10T22:42:42.956Z,10.60
2018-11-10T22:45:11.949Z,10.60
2018-11-10T22:47:40.245Z,10.60
2018-11-10T22:50:10.061Z,10.60
2018-11-10T22:52:37.651Z,10.60
2018-11-10T22:55:05.665Z,10.60
2018-11-10T22:57:33.297Z,10.60
2018-11-10T23:00:00.933Z,10.60
2018-11-10T23:02:28.472Z,10.50
2018-11-10T23:04:56.139Z,10.50
2018-11-10T23:07:23.793Z,10.50
2018-11-10T23:09:51.428Z,10.60
2018-11-10T23:12:19.141Z,10.60
2018-11-10T23:14:46.682Z,10.50
2018-11-10T23:17:14.374Z,10.60
2018-11-10T23:19:41.950Z,10.60
2018-11-10T23:22:09.470Z,10.60
2018-11-10T23:24:37.393Z,10.60
2018-11-10T23:27:05.011Z,10.60
2018-11-10T23:29:32.622Z,10.60
2018-11-10T23:32:00.303Z,10.70
2018-11-10T23:34:27.912Z,10.70
2018-11-10T23:36:55.481Z,10.70
2018-11-10T23:39:23.075Z,10.70
2018-11-10T23:41:50.665Z,10.70
2018-11-10T23:44:18.241Z,10.70
2018-11-10T23:46:45.864Z,10.70
2018-11-10T23:49:13.465Z,10.70
2018-11-10T23:51:41.123Z,10.70
2018-11-10T23:54:08.790Z,10.70
2018-11-10T23:56:36.396Z,10.70
2018-11-10T23:59:04.205Z,10.80
